Terminal Aerodrome Forecast
Issued by NWS

Home | Current Version | Previous Version | Text Only | Print | Product List | Glossary On
Versions: 1 2 3 4 5 6 7 8 9 10 11 12 13 14 15 16 17 18 19
000
FTUS44 KLZK 211724
TAFBPK
TAF
KBPK 211724Z 2118/2218 19012G20KT P6SM VCSH BKN035 OVC080
      TEMPO 2118/2122 -SHRA BKN020
     FM212200 16014G24KT P6SM VCTS BKN025 OVC050CB
      TEMPO 2200/2204 5SM -TSRA BR BKN015 OVC040CB
     FM220400 15016G26KT P6SM -TSRA BKN025 OVC040CB
      TEMPO 2204/2208 VRB15G35KT 2SM +TSRA BR OVC015CB
     FM221100 22015G25KT P6SM SCT025 SCT250=

USA.gov is the U.S. government's official web portal to all federal, state and local government web resources and services.